アセンション島 の空港の天気 - METARとTAF

アセンション島空軍基地 ( FHAW / ASI ) - ジョージタウン
飛行場実況気象(Metar)
観測時間-
風向・風速- -
視程-
天気現象-
-
気温-
湿度-
気圧-
METAR-
過去の天気等 Google飛行場航空写真 Wunderground天気予報

過去48時間のMETAR

飛行場予報(TAF)
発表時間: 7/22 18:00 GMT (7/22 18:00 UTC)
予報対象時間: 22日18時 GMT ~ 23日12時 GMT
風向・風速南東 6m/s
視程10km以上
少しの雲 雲底高度 910m
22日21時 GMT ~ 23日12時 GMT に 確率 30% で一時的に
視程7000m
天気現象弱いしゅう雨
全天の4割程度の雲 雲底高度 550m
TAF FHAW 221800Z 2218/2312 13012KT 9999 FEW030
PROB30 TEMPO 2221/2312 7000 -SHRA SCT018